(°C)
23°
23°
23°
23°
23°
23°
24°
(°C)
26°
27°
27°
27°
27°
28°
28°
SSW
SSW
SW
SW
WSW
WSW
W
(km/h)
6-19
6-16
5-13
5-11
5-10
5-10
5-13
(mm)
0
0
0
0
0
0
0
(%)
46
42
38
30
22
14
10

Sonnenhöhe

/ -26.5°
sun-icon
UV 7
05:39
20:34
Erstes Viertel (83°)
12:48
00:30

METAR für Wilmington Manor (KILG)

Zeit Bedingungen Temperatur/
Taupunkt
Wind Sichtweite Wetter Wolken Druck Änderung Roh
VFR 22.8°C / 21.7°C 190º 4kt >10km - Overcast 8500ft 1011 - KILG 060351Z AUTO 19004KT 10SM OVC085 23/22 A2986 RMK AO2 SLP111 T02280217
VFR 22.8°C / 21.7°C variable 0kt >10km - Broken Clouds 9000ft 1011 - KILG 060251Z 00000KT 10SM BKN090 23/22 A2987 RMK AO2 SLP113 T02280217 58007
VFR 22.8°C / 21.7°C 180º 3kt >10km - Scattered Clouds 800ft
Broken Clouds 9500ft
- KILG 060208Z 18003KT 10SM SCT008 BKN095 23/22 A2989 RMK AO2 T02280217
IFR 23.3°C / 21.7°C 180º 4kt >10km - Broken Clouds 900ft 1012 - KILG 060151Z 18004KT 10SM BKN009 23/22 A2990 RMK AO2 SLP122 T02330217
IFR 23.3°C / 21.7°C 190º 5kt >10km - Broken Clouds 900ft - KILG 060117Z 19005KT 10SM BKN009 23/22 A2989 RMK AO2 T02330217
MVFR 23.3°C / 21.7°C 190º 5kt >10km - Scattered Clouds 900ft
Broken Clouds 2600ft
Overcast 3200ft
- KILG 060112Z AUTO 19005KT 10SM SCT009 BKN026 OVC032 23/22 A2989 RMK AO2 T02330217
IFR 23.3°C / 22.2°C 190º 7kt >10km - Broken Clouds 800ft 1011 - KILG 060051Z 19007KT 10SM BKN008 23/22 A2988 RMK AO2 SLP118 T02330222
IFR 23.3°C / 21.7°C 190º 6kt >10km 0.13mm precipitation Broken Clouds 800ft 1012 - KILG 052351Z 19006KT 10SM BKN008 23/22 A2989 RMK AO2 RAB03E16 SLP121 P0000 60003 T02330217 10289 20228 58007
VFR 23.3°C / 21.7°C 200º 8kt >10km 0.13mm precipitation Few Clouds 800ft
Few Clouds 1200ft
Broken Clouds 3700ft
- KILG 052340Z AUTO 20008KT 10SM FEW008 FEW012 BKN037 23/22 A2989 RMK AO2 RAB03E16 P0000 T02330217
VFR 23.3°C / 21.1°C 190º 9kt >10km 0.13mm precipitation Few Clouds 2700ft
Broken Clouds 8000ft
Overcast 10000ft
1012 - KILG 052251Z AUTO 19009KT 10SM FEW027 BKN080 OVC100 23/21 A2989 RMK AO2 RAE40 SLP123 P0000 T02330211
VFR 23.9°C / 20°C 200º 9kt >10km Light Rain 0.13mm precipitation Broken Clouds 4400ft
Overcast 9000ft
1012 - KILG 052151Z 20009KT 10SM -RA BKN044 OVC090 24/20 A2991 RMK AO2 RAE16B25 SLP128 P0000 T02390200
VFR 23.9°C / 19.4°C 190º 10kt >10km Light Rain 0.13mm precipitation Scattered Clouds 2700ft
Scattered Clouds 3900ft
Overcast 9500ft
- KILG 052136Z 19010KT 10SM -RA SCT027 SCT039 OVC095 24/19 A2991 RMK AO2 RAE16B25 P0000 T02390194
MVFR 24.4°C / 19.4°C 190º 12kt >10km 0.13mm precipitation Overcast 2900ft - KILG 052117Z 19012KT 10SM OVC029 24/19 A2992 RMK AO2 RAE16 P0000 T02440194
VFR 25.6°C / 20°C 180º 18kt Gust 22kt >10km Light Rain 0.76mm precipitation Broken Clouds 3600ft
Overcast 4600ft
1012 - KILG 052051Z 18018G22KT 10SM -RA BKN036 OVC046 26/20 A2991 RMK AO2 RAB31 SLP128 P0003 60003 T02560200 56022
VFR 27.8°C / 20.6°C 180º 9kt >10km - Overcast 4400ft 1013 - KILG 051951Z 18009KT 10SM OVC044 28/21 A2992 RMK AO2 SLP131 T02780206
VFR 28.3°C / 20.6°C 160º 10kt >10km - Overcast 5500ft 1013 - KILG 051851Z 16010KT 10SM OVC055 28/21 A2994 RMK AO2 SLP139 T02830206
VFR 28.9°C / 19.4°C 180º 12kt >10km - Scattered Clouds 4800ft
Broken Clouds 6500ft
1014 - KILG 051751Z 18012KT 10SM SCT048 BKN065 29/19 A2998 RMK AO2 SLP149 T02890194 10300 20233 58026
VFR 28.9°C / 20°C 180º 11kt >10km - Broken Clouds 6500ft 1015 - KILG 051651Z 18011KT 10SM BKN065 29/20 A3000 RMK AO2 SLP159 T02890200
VFR 28.9°C / 19.4°C 220º 12kt >10km - Few Clouds 4000ft
Scattered Clouds 8000ft
1017 - KILG 051551Z 22012KT 10SM FEW040 SCT080 29/19 A3004 RMK AO2 SLP170 T02890194
VFR 28.3°C / 19.4°C 180º 12kt >10km - Few Clouds 3500ft
Scattered Clouds 8000ft
1017 - KILG 051451Z 18012KT 10SM FEW035 SCT080 28/19 A3005 RMK AO2 SLP175 T02830194 58021
VFR 27.2°C / 19.4°C 220º 8kt >10km - Scattered Clouds 7000ft 1018 - KILG 051351Z 22008KT 10SM SCT070 27/19 A3007 RMK AO2 SLP182 T02720194
VFR 25.6°C / 20.6°C 200º 5kt >10km - Clear 1019 - KILG 051251Z 20005KT 10SM CLR 26/21 A3010 RMK AO2 SLP191 T02560206
VFR 23.3°C / 20°C 200º 6kt >10km - Clear 1019 - KILG 051151Z 20006KT 10SM CLR 23/20 A3011 RMK AO2 SLP196 T02330200 10233 20200 50000
VFR 21.7°C / 18.9°C 200º 3kt >10km - Clear 1020 - KILG 051051Z 20003KT 10SM CLR 22/19 A3013 RMK AO2 SLP200 T02170189

VFR

22.8°C / 21.7°C

[Mehr]
Wind 190º 4kt
Sichtweite >10km
Wetter -
Wolken Overcast 8500ft
Druck 1011
Änderung -
Roh KILG 060351Z AUTO 19004KT 10SM OVC085 23/22 A2986 RMK AO2 SLP111 T02280217

VFR

22.8°C / 21.7°C

[Mehr]
Wind variable 0kt
Sichtweite >10km
Wetter -
Wolken Broken Clouds 9000ft
Druck 1011
Änderung -
Roh KILG 060251Z 00000KT 10SM BKN090 23/22 A2987 RMK AO2 SLP113 T02280217 58007

VFR

22.8°C / 21.7°C

[Mehr]
Wind 180º 3kt
Sichtweite >10km
Wetter -
Wolken Scattered Clouds 800ft
Broken Clouds 9500ft
Druck
Änderung -
Roh KILG 060208Z 18003KT 10SM SCT008 BKN095 23/22 A2989 RMK AO2 T02280217

IFR

23.3°C / 21.7°C

[Mehr]
Wind 180º 4kt
Sichtweite >10km
Wetter -
Wolken Broken Clouds 900ft
Druck 1012
Änderung -
Roh KILG 060151Z 18004KT 10SM BKN009 23/22 A2990 RMK AO2 SLP122 T02330217

IFR

23.3°C / 21.7°C

[Mehr]
Wind 190º 5kt
Sichtweite >10km
Wetter -
Wolken Broken Clouds 900ft
Druck
Änderung -
Roh KILG 060117Z 19005KT 10SM BKN009 23/22 A2989 RMK AO2 T02330217

MVFR

23.3°C / 21.7°C

[Mehr]
Wind 190º 5kt
Sichtweite >10km
Wetter -
Wolken Scattered Clouds 900ft
Broken Clouds 2600ft
Overcast 3200ft
Druck
Änderung -
Roh KILG 060112Z AUTO 19005KT 10SM SCT009 BKN026 OVC032 23/22 A2989 RMK AO2 T02330217

IFR

23.3°C / 22.2°C

[Mehr]
Wind 190º 7kt
Sichtweite >10km
Wetter -
Wolken Broken Clouds 800ft
Druck 1011
Änderung -
Roh KILG 060051Z 19007KT 10SM BKN008 23/22 A2988 RMK AO2 SLP118 T02330222

IFR

23.3°C / 21.7°C

[Mehr]
Wind 190º 6kt
Sichtweite >10km
Wetter 0.13mm precipitation
Wolken Broken Clouds 800ft
Druck 1012
Änderung -
Roh KILG 052351Z 19006KT 10SM BKN008 23/22 A2989 RMK AO2 RAB03E16 SLP121 P0000 60003 T02330217 10289 20228 58007

VFR

23.3°C / 21.7°C

[Mehr]
Wind 200º 8kt
Sichtweite >10km
Wetter 0.13mm precipitation
Wolken Few Clouds 800ft
Few Clouds 1200ft
Broken Clouds 3700ft
Druck
Änderung -
Roh KILG 052340Z AUTO 20008KT 10SM FEW008 FEW012 BKN037 23/22 A2989 RMK AO2 RAB03E16 P0000 T02330217

VFR

23.3°C / 21.1°C

[Mehr]
Wind 190º 9kt
Sichtweite >10km
Wetter 0.13mm precipitation
Wolken Few Clouds 2700ft
Broken Clouds 8000ft
Overcast 10000ft
Druck 1012
Änderung -
Roh KILG 052251Z AUTO 19009KT 10SM FEW027 BKN080 OVC100 23/21 A2989 RMK AO2 RAE40 SLP123 P0000 T02330211

VFR

23.9°C / 20°C

[Mehr]
Wind 200º 9kt
Sichtweite >10km
Wetter Light Rain 0.13mm precipitation
Wolken Broken Clouds 4400ft
Overcast 9000ft
Druck 1012
Änderung -
Roh KILG 052151Z 20009KT 10SM -RA BKN044 OVC090 24/20 A2991 RMK AO2 RAE16B25 SLP128 P0000 T02390200

VFR

23.9°C / 19.4°C

[Mehr]
Wind 190º 10kt
Sichtweite >10km
Wetter Light Rain 0.13mm precipitation
Wolken Scattered Clouds 2700ft
Scattered Clouds 3900ft
Overcast 9500ft
Druck
Änderung -
Roh KILG 052136Z 19010KT 10SM -RA SCT027 SCT039 OVC095 24/19 A2991 RMK AO2 RAE16B25 P0000 T02390194

MVFR

24.4°C / 19.4°C

[Mehr]
Wind 190º 12kt
Sichtweite >10km
Wetter 0.13mm precipitation
Wolken Overcast 2900ft
Druck
Änderung -
Roh KILG 052117Z 19012KT 10SM OVC029 24/19 A2992 RMK AO2 RAE16 P0000 T02440194

VFR

25.6°C / 20°C

[Mehr]
Wind 180º 18kt Gust 22kt
Sichtweite >10km
Wetter Light Rain 0.76mm precipitation
Wolken Broken Clouds 3600ft
Overcast 4600ft
Druck 1012
Änderung -
Roh KILG 052051Z 18018G22KT 10SM -RA BKN036 OVC046 26/20 A2991 RMK AO2 RAB31 SLP128 P0003 60003 T02560200 56022

VFR

27.8°C / 20.6°C

[Mehr]
Wind 180º 9kt
Sichtweite >10km
Wetter -
Wolken Overcast 4400ft
Druck 1013
Änderung -
Roh KILG 051951Z 18009KT 10SM OVC044 28/21 A2992 RMK AO2 SLP131 T02780206

VFR

28.3°C / 20.6°C

[Mehr]
Wind 160º 10kt
Sichtweite >10km
Wetter -
Wolken Overcast 5500ft
Druck 1013
Änderung -
Roh KILG 051851Z 16010KT 10SM OVC055 28/21 A2994 RMK AO2 SLP139 T02830206

VFR

28.9°C / 19.4°C

[Mehr]
Wind 180º 12kt
Sichtweite >10km
Wetter -
Wolken Scattered Clouds 4800ft
Broken Clouds 6500ft
Druck 1014
Änderung -
Roh KILG 051751Z 18012KT 10SM SCT048 BKN065 29/19 A2998 RMK AO2 SLP149 T02890194 10300 20233 58026

VFR

28.9°C / 20°C

[Mehr]
Wind 180º 11kt
Sichtweite >10km
Wetter -
Wolken Broken Clouds 6500ft
Druck 1015
Änderung -
Roh KILG 051651Z 18011KT 10SM BKN065 29/20 A3000 RMK AO2 SLP159 T02890200

VFR

28.9°C / 19.4°C

[Mehr]
Wind 220º 12kt
Sichtweite >10km
Wetter -
Wolken Few Clouds 4000ft
Scattered Clouds 8000ft
Druck 1017
Änderung -
Roh KILG 051551Z 22012KT 10SM FEW040 SCT080 29/19 A3004 RMK AO2 SLP170 T02890194

VFR

28.3°C / 19.4°C

[Mehr]
Wind 180º 12kt
Sichtweite >10km
Wetter -
Wolken Few Clouds 3500ft
Scattered Clouds 8000ft
Druck 1017
Änderung -
Roh KILG 051451Z 18012KT 10SM FEW035 SCT080 28/19 A3005 RMK AO2 SLP175 T02830194 58021

VFR

27.2°C / 19.4°C

[Mehr]
Wind 220º 8kt
Sichtweite >10km
Wetter -
Wolken Scattered Clouds 7000ft
Druck 1018
Änderung -
Roh KILG 051351Z 22008KT 10SM SCT070 27/19 A3007 RMK AO2 SLP182 T02720194

VFR

25.6°C / 20.6°C

[Mehr]
Wind 200º 5kt
Sichtweite >10km
Wetter -
Wolken Clear
Druck 1019
Änderung -
Roh KILG 051251Z 20005KT 10SM CLR 26/21 A3010 RMK AO2 SLP191 T02560206

VFR

23.3°C / 20°C

[Mehr]
Wind 200º 6kt
Sichtweite >10km
Wetter -
Wolken Clear
Druck 1019
Änderung -
Roh KILG 051151Z 20006KT 10SM CLR 23/20 A3011 RMK AO2 SLP196 T02330200 10233 20200 50000

VFR

21.7°C / 18.9°C

[Mehr]
Wind 200º 3kt
Sichtweite >10km
Wetter -
Wolken Clear
Druck 1020
Änderung -
Roh KILG 051051Z 20003KT 10SM CLR 22/19 A3013 RMK AO2 SLP200 T02170189

TAF für Wilmington Manor (KILG)

From till


From till Wind 200º 6kt. Visibility 10km or more. Few Clouds 600ft. Scattered Clouds 1500ft. Broken Clouds 8000ft.
From till Wind variable 4kt. Visibility 10km or more. Scattered Clouds 1500ft.
From till Wind variable 3kt. Visibility 8000m. Mist . Scattered Clouds 800ft.
From till Wind 300º 6kt. Visibility 10km or more. Scattered Clouds 25000ft.

Roh: KILG 060221Z 0602/0624 20006KT P6SM FEW006 SCT015 BKN080 FM060600 VRB04KT P6SM SCT015 FM060900 VRB03KT 5SM BR SCT008 FM061300 30006KT P6SM SCT250

Radar- und Niederschlags-Nowcast für Wilmington Manor

Nieselregen
Leicht
Moderat
Stark
Sehr schwer
Hagel

Die Ortsmarkierung zeigt auf Wilmington Manor. Diese Animation zeigt das Niederschlagsradar der letzten Stunde, sowie eine 1h Vorhersage. Nieselregen und leichter Schneefall können für das Radar unsichtbar sein. Die Niederschlagsintensität ist farbcodiert von Hellblau bis Orange.

Aktuelle Satellitenbilder für Wilmington Manor, Vereinigte Staaten

Die Standortmarkierung ist platziert auf Wilmington Manor. [Mehr]

Das Echtzeit-Satellitenbild kombiniert sichtbares Licht während des Tages mit Infrarotstrahlung während der Nacht. Nachts ist das Bild nicht dunkel, da Infrarotstrahlung Temperaturunterschiede erkennen kann. Leider sind niedrige Wolken und Nebel nur schwer von den Bodentemperaturen zu unterscheiden und können daher nachts fast unsichtbar sein. Meteosat-Satellitenbilder für Europa werden alle 5 Minuten in Echtzeit aktualisiert. Die Bilder GOES-16 / GOES-17 (Nord- und Südamerika) und Himawari (Asien) werden alle 10 Minuten aktualisiert.

Zum Anfang